Time;durP1;ratioP1;P1;durP2;ratioP2;P2;SDS_P1;SDS_P2;PMS_P1;PMS_P2;Temp;Humidity;BMP_temperature;BMP_pressure;BME280_temperature;BME280_humidity;BME280_pressure;Samples;Min_cycle;Max_cycle;Signal;HPM_P1;HPM_P2
2023/05/05 00:00:45;;;;;;;266.25;12.93;;;;;;;;;;4982792;28;20057;-55
2023/05/05 00:03:10;;;;;;;207.70;23.87;;;;;;;;;;4981815;28;20023;-55
2023/05/05 00:05:36;;;;;;;159.07;7.90;;;;;;;;;;4981183;28;20265;-56
2023/05/05 00:08:02;;;;;;;215.77;9.47;;;;;;;;;;4980826;28;20250;-56
2023/05/05 00:10:27;;;;;;;253.15;9.65;;;;;;;;;;4982854;28;20297;-57
2023/05/05 00:12:52;;;;;;;265.58;10.05;;;;;;;;;;4986877;28;20084;-56
2023/05/05 00:15:18;;;;;;;295.70;11.38;;;;;;;;;;4980060;28;20018;-55
2023/05/05 00:17:43;;;;;;;278.08;10.50;;;;;;;;;;4983632;28;20032;-60
2023/05/05 00:20:08;;;;;;;299.17;12.93;;;;;;;;;;4983141;28;20041;-58
2023/05/05 00:22:33;;;;;;;260.90;18.70;;;;;;;;;;4981570;28;20257;-58
2023/05/05 00:24:59;;;;;;;237.43;15.93;;;;;;;;;;4977443;28;20149;-56
2023/05/05 00:27:24;;;;;;;256.98;9.85;;;;;;;;;;4981853;28;20034;-55
2023/05/05 00:29:50;;;;;;;199.45;11.50;;;;;;;;;;4986320;28;20027;-55
2023/05/05 00:32:15;;;;;;;245.52;47.00;;;;;;;;;;4981064;28;20901;-58
2023/05/05 00:34:40;;;;;;;303.45;69.88;;;;;;;;;;4984989;28;20025;-60
2023/05/05 00:37:06;;;;;;;377.65;62.72;;;;;;;;;;4985235;28;20052;-57
2023/05/05 00:39:32;;;;;;;373.80;58.88;;;;;;;;;;4987227;28;20146;-57
2023/05/05 00:41:58;;;;;;;281.70;32.50;;;;;;;;;;4987403;28;20445;-55
2023/05/05 00:44:34;;;;;;;352.05;63.08;;;;;;;;;;4983808;28;20019;-55
2023/05/05 00:46:59;;;;;;;274.13;63.47;;;;;;;;;;4984709;28;20035;-57
2023/05/05 00:49:25;;;;;;;283.57;67.43;;;;;;;;;;4984772;28;20395;-57
2023/05/05 00:51:50;;;;;;;389.48;59.45;;;;;;;;;;4986246;28;20269;-56
2023/05/05 00:54:15;;;;;;;445.27;76.13;;;;;;;;;;4983050;28;20121;-57
2023/05/05 00:56:41;;;;;;;433.85;83.45;;;;;;;;;;4985024;28;20922;-59
2023/05/05 00:59:06;;;;;;;430.90;79.70;;;;;;;;;;4984645;28;20018;-57
2023/05/05 01:01:31;;;;;;;377.30;77.70;;;;;;;;;;4986759;28;20393;-56
2023/05/05 01:03:57;;;;;;;357.98;67.95;;;;;;;;;;4988727;28;20077;-56
2023/05/05 01:06:36;;;;;;;267.23;48.45;;;;;;;;;;4982874;28;20184;-57
2023/05/05 01:09:20;;;;;;;363.27;55.60;;;;;;;;;;4981920;28;20543;-57
2023/05/05 01:12:18;;;;;;;317.15;76.97;;;;;;;;;;4984773;28;20030;-55
2023/05/05 01:14:45;;;;;;;308.77;73.38;;;;;;;;;;5002696;28;20108;-55
2023/05/05 01:17:13;;;;;;;333.80;77.65;;;;;;;;;;4985261;28;20076;-55
2023/05/05 01:19:41;;;;;;;296.60;54.53;;;;;;;;;;4984149;28;20026;-56
2023/05/05 01:22:09;;;;;;;310.60;47.83;;;;;;;;;;4984580;28;20076;-58
2023/05/05 01:24:37;;;;;;;300.77;54.08;;;;;;;;;;4986582;28;20440;-58
2023/05/05 01:27:21;;;;;;;228.30;42.88;;;;;;;;;;4985045;28;20038;-57
2023/05/05 01:29:50;;;;;;;310.75;56.78;;;;;;;;;;4984872;28;20678;-58
2023/05/05 01:32:18;;;;;;;324.08;54.15;;;;;;;;;;4983468;28;20038;-57
2023/05/05 01:34:50;;;;;;;349.63;57.95;;;;;;;;;;4984290;28;20030;-57
2023/05/05 01:37:21;;;;;;;375.00;69.18;;;;;;;;;;4983313;28;20038;-57
2023/05/05 01:39:49;;;;;;;288.40;59.72;;;;;;;;;;4982068;28;20026;-58
2023/05/05 01:42:17;;;;;;;225.75;49.63;;;;;;;;;;4985989;28;20030;-57
2023/05/05 01:44:43;;;;;;;260.85;49.55;;;;;;;;;;4983865;28;20498;-57
2023/05/05 01:47:12;;;;;;;255.80;49.17;;;;;;;;;;4982578;28;20037;-58
2023/05/05 01:49:37;;;;;;;256.98;45.50;;;;;;;;;;4983615;28;20084;-57
2023/05/05 01:52:03;;;;;;;315.95;43.88;;;;;;;;;;4981565;28;20051;-58
2023/05/05 01:54:30;;;;;;;280.08;43.55;;;;;;;;;;4985611;28;20142;-56
2023/05/05 01:56:57;;;;;;;288.27;39.80;;;;;;;;;;4984120;28;20046;-57
2023/05/05 01:59:24;;;;;;;291.35;42.28;;;;;;;;;;4983568;28;20723;-56
2023/05/05 02:01:50;;;;;;;313.10;44.10;;;;;;;;;;4984352;28;20038;-56
2023/05/05 02:04:16;;;;;;;392.25;41.53;;;;;;;;;;4985560;28;20038;-57
2023/05/05 02:06:43;;;;;;;302.90;37.47;;;;;;;;;;4982877;28;20052;-57
2023/05/05 02:09:10;;;;;;;392.73;48.47;;;;;;;;;;4980988;28;20014;-57
2023/05/05 02:11:36;;;;;;;373.35;52.10;;;;;;;;;;4982012;28;20034;-57
2023/05/05 02:14:01;;;;;;;333.58;49.15;;;;;;;;;;4985291;28;20037;-58
2023/05/05 02:16:29;;;;;;;339.70;44.33;;;;;;;;;;4984164;28;20026;-58
2023/05/05 02:18:56;;;;;;;296.67;43.17;;;;;;;;;;4982534;28;20086;-56
2023/05/05 02:21:21;;;;;;;305.73;49.70;;;;;;;;;;4986556;28;20050;-57
2023/05/05 02:23:50;;;;;;;416.77;54.80;;;;;;;;;;4984583;28;20029;-59
2023/05/05 02:26:16;;;;;;;287.73;54.95;;;;;;;;;;4986922;28;20046;-60
2023/05/05 02:28:53;;;;;;;294.83;57.55;;;;;;;;;;4984577;28;20450;-59
2023/05/05 02:31:20;;;;;;;379.00;58.30;;;;;;;;;;4981145;28;20424;-61
2023/05/05 02:33:46;;;;;;;463.08;57.28;;;;;;;;;;4986046;28;20039;-58
2023/05/05 02:36:15;;;;;;;337.30;44.15;;;;;;;;;;4985876;28;20196;-58
2023/05/05 02:38:42;;;;;;;347.23;46.30;;;;;;;;;;4981391;28;20041;-58
2023/05/05 02:41:10;;;;;;;350.30;49.47;;;;;;;;;;4982397;28;20089;-59
2023/05/05 02:43:36;;;;;;;298.45;45.15;;;;;;;;;;4986904;28;20113;-56
2023/05/05 02:46:01;;;;;;;305.25;49.83;;;;;;;;;;4982991;28;20049;-59
2023/05/05 02:48:28;;;;;;;270.92;43.65;;;;;;;;;;4982996;28;20031;-59
2023/05/05 02:50:53;;;;;;;248.65;45.17;;;;;;;;;;4984790;28;20061;-59
2023/05/05 02:53:22;;;;;;;203.48;9.32;;;;;;;;;;4982918;28;20069;-57
2023/05/05 02:55:52;;;;;;;173.27;8.45;;;;;;;;;;4980253;28;20049;-59
2023/05/05 02:58:23;;;;;;;200.75;10.02;;;;;;;;;;4983460;28;20118;-57
2023/05/05 03:01:00;;;;;;;232.20;11.15;;;;;;;;;;4982428;28;20856;-59
2023/05/05 03:03:45;;;;;;;276.52;16.25;;;;;;;;;;4984067;28;20030;-56
2023/05/05 03:06:13;;;;;;;270.65;18.80;;;;;;;;;;4983714;28;20041;-57
2023/05/05 03:08:57;;;;;;;255.38;22.75;;;;;;;;;;4980373;28;20029;-57
2023/05/05 03:11:27;;;;;;;250.57;13.57;;;;;;;;;;4983017;28;20099;-58
2023/05/05 03:14:03;;;;;;;379.02;25.75;;;;;;;;;;4983726;28;20061;-56
2023/05/05 03:16:30;;;;;;;190.20;17.85;;;;;;;;;;4982410;28;20060;-58
2023/05/05 03:18:57;;;;;;;212.77;21.27;;;;;;;;;;4982812;28;20053;-57
2023/05/05 03:21:23;;;;;;;161.45;21.25;;;;;;;;;;4982255;28;20042;-57
2023/05/05 03:23:48;;;;;;;269.58;26.38;;;;;;;;;;4979089;28;20107;-56
2023/05/05 03:26:15;;;;;;;263.95;27.63;;;;;;;;;;4987853;28;20072;-57
2023/05/05 03:28:40;;;;;;;203.90;29.15;;;;;;;;;;4983498;28;20034;-57
2023/05/05 03:31:06;;;;;;;278.00;34.10;;;;;;;;;;4983745;28;20030;-59
2023/05/05 03:33:31;;;;;;;298.23;32.97;;;;;;;;;;4982820;28;20261;-56
2023/05/05 03:35:56;;;;;;;240.70;20.23;;;;;;;;;;4982773;28;20201;-57
2023/05/05 03:38:21;;;;;;;313.75;25.60;;;;;;;;;;4981834;28;20939;-58
2023/05/05 03:40:47;;;;;;;294.48;30.48;;;;;;;;;;4980929;28;20128;-59
2023/05/05 03:43:12;;;;;;;287.27;32.60;;;;;;;;;;4982774;28;20049;-57
2023/05/05 03:45:37;;;;;;;232.60;30.00;;;;;;;;;;4983142;28;20109;-58
2023/05/05 03:48:02;;;;;;;168.57;25.15;;;;;;;;;;4984888;28;20264;-57
2023/05/05 03:50:28;;;;;;;209.05;24.60;;;;;;;;;;4983483;28;20121;-57
2023/05/05 03:52:53;;;;;;;164.97;25.60;;;;;;;;;;4983680;28;20031;-58
2023/05/05 03:55:18;;;;;;;243.45;29.33;;;;;;;;;;4980602;28;20325;-58
2023/05/05 03:57:44;;;;;;;351.35;33.83;;;;;;;;;;4967914;28;20038;-59
2023/05/05 04:00:10;;;;;;;287.50;22.65;;;;;;;;;;4981893;28;20034;-59
2023/05/05 04:02:35;;;;;;;309.77;13.30;;;;;;;;;;4984657;28;20075;-57
2023/05/05 04:05:01;;;;;;;290.23;18.35;;;;;;;;;;4983716;28;20030;-57
2023/05/05 04:07:26;;;;;;;277.25;13.23;;;;;;;;;;4985663;28;20040;-56
2023/05/05 04:09:51;;;;;;;244.68;10.80;;;;;;;;;;4985918;28;20129;-59
2023/05/05 04:12:16;;;;;;;221.82;10.60;;;;;;;;;;4987957;28;20914;-58
2023/05/05 04:14:42;;;;;;;206.03;9.20;;;;;;;;;;4986122;28;20454;-58
2023/05/05 04:17:07;;;;;;;210.88;8.57;;;;;;;;;;4993353;28;20745;-57
2023/05/05 04:19:32;;;;;;;189.75;8.68;;;;;;;;;;4985812;28;20068;-57
2023/05/05 04:21:58;;;;;;;156.70;8.40;;;;;;;;;;4988395;28;20163;-57
2023/05/05 04:24:24;;;;;;;217.48;9.48;;;;;;;;;;4984137;28;20128;-59
2023/05/05 04:26:53;;;;;;;225.25;9.70;;;;;;;;;;4988673;28;20042;-57
2023/05/05 04:29:18;;;;;;;239.60;9.65;;;;;;;;;;4988903;28;20809;-58
2023/05/05 04:31:43;;;;;;;296.48;11.30;;;;;;;;;;4987387;28;20034;-58
2023/05/05 04:34:09;;;;;;;256.77;10.60;;;;;;;;;;4985716;28;20397;-59
2023/05/05 04:36:34;;;;;;;297.50;11.13;;;;;;;;;;4985797;28;20068;-58
2023/05/05 04:38:59;;;;;;;237.88;10.10;;;;;;;;;;4982280;28;20026;-59
2023/05/05 04:41:25;;;;;;;230.88;9.85;;;;;;;;;;4985056;28;20046;-57
2023/05/05 04:43:50;;;;;;;318.77;12.23;;;;;;;;;;4989554;28;20025;-57
2023/05/05 04:46:15;;;;;;;178.87;8.10;;;;;;;;;;4987139;28;20042;-57
2023/05/05 04:48:40;;;;;;;212.60;9.48;;;;;;;;;;4985312;28;20612;-57
2023/05/05 04:51:06;;;;;;;214.40;9.57;;;;;;;;;;4987705;28;20094;-57
2023/05/05 04:53:31;;;;;;;148.57;7.95;;;;;;;;;;4985559;28;20520;-58
2023/05/05 04:55:58;;;;;;;229.98;10.07;;;;;;;;;;4986794;28;20057;-57
2023/05/05 04:58:24;;;;;;;229.38;9.77;;;;;;;;;;4985056;28;20030;-58
2023/05/05 05:00:49;;;;;;;262.63;10.97;;;;;;;;;;4987713;28;20464;-59
2023/05/05 05:03:14;;;;;;;289.45;11.10;;;;;;;;;;4986025;28;20265;-57
2023/05/05 05:05:39;;;;;;;256.92;10.77;;;;;;;;;;4989360;28;20392;-59
2023/05/05 05:08:05;;;;;;;316.20;12.47;;;;;;;;;;4984060;28;20017;-58
2023/05/05 05:10:30;;;;;;;251.02;10.48;;;;;;;;;;4985315;28;20254;-59
2023/05/05 05:12:55;;;;;;;206.80;9.13;;;;;;;;;;4987734;28;20483;-56
2023/05/05 05:15:20;;;;;;;313.53;11.53;;;;;;;;;;4978976;28;20014;-56
2023/05/05 05:17:46;;;;;;;232.25;9.98;;;;;;;;;;4982872;28;20269;-57
2023/05/05 05:20:11;;;;;;;330.60;13.60;;;;;;;;;;4983085;28;20110;-57
2023/05/05 05:22:37;;;;;;;292.95;11.73;;;;;;;;;;4987170;28;20254;-57
2023/05/05 05:25:03;;;;;;;242.93;10.57;;;;;;;;;;4985397;28;20581;-57
2023/05/05 05:27:28;;;;;;;294.63;11.85;;;;;;;;;;4984277;28;20043;-59
2023/05/05 05:29:53;;;;;;;280.45;11.02;;;;;;;;;;4987289;28;20026;-57
2023/05/05 05:32:18;;;;;;;259.60;10.70;;;;;;;;;;4988051;28;20150;-58
2023/05/05 05:34:44;;;;;;;283.17;11.07;;;;;;;;;;4984458;28;20034;-58
2023/05/05 05:37:09;;;;;;;243.85;10.55;;;;;;;;;;4985294;28;20034;-58
2023/05/05 05:39:35;;;;;;;290.85;11.55;;;;;;;;;;4985195;28;20034;-58
2023/05/05 05:42:01;;;;;;;274.90;10.93;;;;;;;;;;4984269;28;20030;-58
2023/05/05 05:44:26;;;;;;;253.45;10.50;;;;;;;;;;4985156;28;20015;-57
2023/05/05 05:46:52;;;;;;;254.10;10.63;;;;;;;;;;4982234;28;20037;-59
2023/05/05 05:49:17;;;;;;;221.63;9.33;;;;;;;;;;4981092;28;20261;-58
2023/05/05 05:51:42;;;;;;;195.13;9.00;;;;;;;;;;4983725;28;20125;-58
2023/05/05 05:54:07;;;;;;;258.77;11.03;;;;;;;;;;4987258;28;20287;-58
2023/05/05 05:56:32;;;;;;;158.98;8.23;;;;;;;;;;4984344;28;20266;-57
2023/05/05 05:58:58;;;;;;;143.50;7.90;;;;;;;;;;4984704;28;20095;-57
2023/05/05 06:01:23;;;;;;;196.90;9.27;;;;;;;;;;4982070;28;20381;-57
2023/05/05 06:03:48;;;;;;;256.17;11.50;;;;;;;;;;4981451;28;20273;-57
2023/05/05 06:06:13;;;;;;;170.40;8.27;;;;;;;;;;4984963;28;20266;-58
2023/05/05 06:08:39;;;;;;;198.30;9.10;;;;;;;;;;4984387;28;20265;-58
2023/05/05 06:11:04;;;;;;;149.60;7.85;;;;;;;;;;4985612;28;20056;-57
2023/05/05 06:13:29;;;;;;;131.45;7.07;;;;;;;;;;4984411;28;20618;-59
2023/05/05 06:15:54;;;;;;;148.55;7.20;;;;;;;;;;4982360;28;20045;-59
2023/05/05 06:18:20;;;;;;;158.47;8.17;;;;;;;;;;4981291;28;20388;-55
2023/05/05 06:20:47;;;;;;;234.83;9.80;;;;;;;;;;4984022;28;20282;-58
2023/05/05 06:23:12;;;;;;;168.13;8.45;;;;;;;;;;4983476;28;20254;-56
2023/05/05 06:25:38;;;;;;;168.70;8.33;;;;;;;;;;4980580;28;20066;-56
2023/05/05 06:28:04;;;;;;;205.80;9.53;;;;;;;;;;4983586;28;20031;-57
2023/05/05 06:30:29;;;;;;;157.20;8.45;;;;;;;;;;4982114;28;20039;-57
2023/05/05 06:32:55;;;;;;;180.57;9.18;;;;;;;;;;4982387;28;20014;-54
2023/05/05 06:35:21;;;;;;;198.50;9.88;;;;;;;;;;4983250;28;20036;-57
2023/05/05 06:37:46;;;;;;;214.27;10.02;;;;;;;;;;4983988;28;20709;-57
2023/05/05 06:40:11;;;;;;;285.17;12.27;;;;;;;;;;4983832;28;20114;-56
2023/05/05 06:42:37;;;;;;;247.68;10.73;;;;;;;;;;4984933;28;20113;-58
2023/05/05 06:45:02;;;;;;;245.93;10.57;;;;;;;;;;4981672;28;20045;-58
2023/05/05 06:47:27;;;;;;;270.63;11.50;;;;;;;;;;4981512;28;20126;-57
2023/05/05 06:49:52;;;;;;;221.30;10.00;;;;;;;;;;4981903;28;20272;-58
2023/05/05 06:52:17;;;;;;;197.80;8.57;;;;;;;;;;4983226;28;20050;-57
2023/05/05 06:54:43;;;;;;;238.50;10.17;;;;;;;;;;4983521;28;20033;-57
2023/05/05 06:57:08;;;;;;;240.83;10.07;;;;;;;;;;4982782;28;20030;-56
2023/05/05 06:59:33;;;;;;;271.40;11.37;;;;;;;;;;4983263;28;20029;-56
2023/05/05 07:01:58;;;;;;;241.70;10.50;;;;;;;;;;4980927;28;20265;-56
2023/05/05 07:04:24;;;;;;;215.03;9.50;;;;;;;;;;4980084;28;20042;-58
2023/05/05 07:06:49;;;;;;;242.05;10.18;;;;;;;;;;4984331;28;20407;-57
2023/05/05 07:09:15;;;;;;;203.17;9.30;;;;;;;;;;4982440;28;20023;-56
2023/05/05 07:11:40;;;;;;;212.43;8.63;;;;;;;;;;4982894;28;20331;-55
2023/05/05 07:14:05;;;;;;;233.10;9.97;;;;;;;;;;4983555;28;20022;-58
2023/05/05 07:16:33;;;;;;;187.47;8.43;;;;;;;;;;4980867;28;20026;-56
2023/05/05 07:18:59;;;;;;;207.10;9.52;;;;;;;;;;4981427;28;20288;-57
2023/05/05 07:21:24;;;;;;;161.40;8.05;;;;;;;;;;4983352;28;20053;-55
2023/05/05 07:23:50;;;;;;;212.63;9.57;;;;;;;;;;4982880;28;20030;-56
2023/05/05 07:26:15;;;;;;;209.70;9.67;;;;;;;;;;4980802;28;20034;-55
2023/05/05 07:28:41;;;;;;;166.10;7.93;;;;;;;;;;4984634;28;20661;-57
2023/05/05 07:31:07;;;;;;;213.75;9.77;;;;;;;;;;4980454;28;20510;-57
2023/05/05 07:33:32;;;;;;;160.10;8.00;;;;;;;;;;4980778;28;20098;-57
2023/05/05 07:35:57;;;;;;;134.57;7.00;;;;;;;;;;4982167;28;20504;-56
2023/05/05 07:38:24;;;;;;;165.13;8.07;;;;;;;;;;4984479;28;20427;-57
2023/05/05 07:40:49;;;;;;;118.47;6.93;;;;;;;;;;4982790;28;20073;-56
2023/05/05 07:43:14;;;;;;;151.87;8.10;;;;;;;;;;4982170;28;20120;-56
2023/05/05 07:45:39;;;;;;;162.73;8.20;;;;;;;;;;4981003;28;20483;-58
2023/05/05 07:48:05;;;;;;;194.17;9.07;;;;;;;;;;4971621;28;20257;-56
2023/05/05 07:50:30;;;;;;;147.50;7.70;;;;;;;;;;4982955;28;20044;-58
2023/05/05 07:52:55;;;;;;;199.77;8.87;;;;;;;;;;4983639;28;20678;-58
2023/05/05 07:55:21;;;;;;;148.07;8.15;;;;;;;;;;4981933;28;20034;-56
2023/05/05 07:57:46;;;;;;;162.93;8.18;;;;;;;;;;4982678;28;20088;-57
2023/05/05 08:00:12;;;;;;;218.73;10.18;;;;;;;;;;4982269;28;20038;-55
2023/05/05 08:02:37;;;;;;;186.52;8.82;;;;;;;;;;4980812;28;20027;-57
2023/05/05 08:05:03;;;;;;;212.02;9.38;;;;;;;;;;4982593;28;20431;-57
2023/05/05 08:07:28;;;;;;;237.18;10.48;;;;;;;;;;4981947;28;20038;-56
2023/05/05 08:09:53;;;;;;;208.40;9.23;;;;;;;;;;4982306;28;20734;-56
2023/05/05 08:12:19;;;;;;;245.13;10.07;;;;;;;;;;4982042;28;20042;-57
2023/05/05 08:14:44;;;;;;;208.73;9.33;;;;;;;;;;4980179;28;20030;-58
2023/05/05 08:17:09;;;;;;;257.90;11.27;;;;;;;;;;4978669;28;20035;-55
2023/05/05 08:19:34;;;;;;;248.50;10.33;;;;;;;;;;4981436;28;20048;-56
2023/05/05 08:22:00;;;;;;;207.80;9.60;;;;;;;;;;4981827;28;20034;-58
2023/05/05 08:24:25;;;;;;;209.40;9.55;;;;;;;;;;4983780;28;20802;-57
2023/05/05 08:26:50;;;;;;;233.25;10.13;;;;;;;;;;4982016;28;20038;-58
2023/05/05 08:29:16;;;;;;;215.63;9.67;;;;;;;;;;4982477;28;20042;-58
2023/05/05 08:31:41;;;;;;;215.20;9.43;;;;;;;;;;4981974;28;20034;-58
2023/05/05 08:34:06;;;;;;;270.50;11.23;;;;;;;;;;4979718;28;20023;-58
2023/05/05 08:36:32;;;;;;;207.63;10.13;;;;;;;;;;4980969;28;20038;-58
2023/05/05 08:38:58;;;;;;;199.75;10.05;;;;;;;;;;4982091;28;20260;-57
2023/05/05 08:41:23;;;;;;;205.98;9.63;;;;;;;;;;4981308;28;20038;-57
2023/05/05 08:43:49;;;;;;;324.77;13.77;;;;;;;;;;4982709;28;20046;-56
2023/05/05 08:46:15;;;;;;;263.95;11.35;;;;;;;;;;4983190;28;20039;-56
2023/05/05 08:48:42;;;;;;;199.10;9.20;;;;;;;;;;4979670;28;20026;-55
2023/05/05 08:51:08;;;;;;;216.57;9.18;;;;;;;;;;4981053;28;20048;-57
2023/05/05 08:53:46;;;;;;;244.75;10.27;;;;;;;;;;4983420;28;20500;-56
2023/05/05 08:56:12;;;;;;;227.52;10.13;;;;;;;;;;4985624;28;20045;-59
2023/05/05 08:58:37;;;;;;;260.83;10.93;;;;;;;;;;4983605;28;20724;-56
2023/05/05 09:01:04;;;;;;;250.05;10.98;;;;;;;;;;4984519;28;20507;-57
2023/05/05 09:03:30;;;;;;;255.00;10.95;;;;;;;;;;4983157;28;20022;-57
2023/05/05 09:05:56;;;;;;;189.68;9.35;;;;;;;;;;4984322;28;20884;-55
2023/05/05 09:08:22;;;;;;;189.35;9.13;;;;;;;;;;4983702;28;20023;-56
2023/05/05 09:10:47;;;;;;;239.35;10.80;;;;;;;;;;4985536;28;20038;-56
2023/05/05 09:13:13;;;;;;;217.38;9.63;;;;;;;;;;4988775;28;20030;-58
2023/05/05 09:15:40;;;;;;;207.10;9.65;;;;;;;;;;4983641;28;20068;-57
2023/05/05 09:18:08;;;;;;;262.27;11.30;;;;;;;;;;4982063;28;20033;-57
2023/05/05 09:20:34;;;;;;;234.13;10.35;;;;;;;;;;4985142;28;20036;-58
2023/05/05 09:23:06;;;;;;;236.07;10.85;;;;;;;;;;4984008;28;20019;-58
2023/05/05 09:25:31;;;;;;;193.48;9.32;;;;;;;;;;4984216;28;20033;-57
2023/05/05 09:27:56;;;;;;;173.70;8.55;;;;;;;;;;4984409;28;20022;-58
2023/05/05 09:30:25;;;;;;;177.90;8.60;;;;;;;;;;4983631;28;20010;-59
2023/05/05 09:32:52;;;;;;;155.18;8.20;;;;;;;;;;4983626;28;20115;-59
2023/05/05 09:35:18;;;;;;;223.00;10.45;;;;;;;;;;4984244;28;20847;-58
2023/05/05 09:37:43;;;;;;;162.32;8.68;;;;;;;;;;4985781;28;20096;-56
2023/05/05 09:40:09;;;;;;;160.27;8.45;;;;;;;;;;4984872;28;20132;-58
2023/05/05 09:42:35;;;;;;;186.10;9.23;;;;;;;;;;4985505;28;20042;-56
2023/05/05 09:45:01;;;;;;;203.25;10.27;;;;;;;;;;4984987;28;20035;-55
2023/05/05 09:47:36;;;;;;;224.45;10.20;;;;;;;;;;4981338;28;20069;-57
2023/05/05 09:50:01;;;;;;;151.00;8.05;;;;;;;;;;4980296;28;20026;-56
2023/05/05 09:52:26;;;;;;;152.93;8.43;;;;;;;;;;4984017;28;20042;-57
2023/05/05 09:54:56;;;;;;;141.10;8.47;;;;;;;;;;4984152;28;20037;-58
2023/05/05 09:57:25;;;;;;;165.30;9.10;;;;;;;;;;4984053;28;21127;-55
2023/05/05 09:59:55;;;;;;;203.70;10.45;;;;;;;;;;4984685;28;20144;-58
2023/05/05 10:02:20;;;;;;;226.65;10.60;;;;;;;;;;4982647;28;20034;-56
2023/05/05 10:04:46;;;;;;;213.70;10.35;;;;;;;;;;4982992;28;20034;-58
2023/05/05 10:07:20;;;;;;;205.47;9.77;;;;;;;;;;4984420;28;20120;-57
2023/05/05 10:09:46;;;;;;;214.63;10.05;;;;;;;;;;4983825;28;20037;-57
2023/05/05 10:12:11;;;;;;;287.77;11.97;;;;;;;;;;4982615;28;20035;-58
2023/05/05 10:14:36;;;;;;;204.73;9.33;;;;;;;;;;4986565;28;20370;-59
2023/05/05 10:17:02;;;;;;;260.63;11.43;;;;;;;;;;4983041;28;20292;-58
2023/05/05 10:19:28;;;;;;;226.85;10.80;;;;;;;;;;4984858;28;20060;-56
2023/05/05 10:21:56;;;;;;;185.68;9.57;;;;;;;;;;4975355;28;20030;-58
2023/05/05 10:24:21;;;;;;;229.48;10.32;;;;;;;;;;4982379;28;20083;-58
2023/05/05 10:26:48;;;;;;;205.00;9.40;;;;;;;;;;4983263;28;20287;-58
2023/05/05 10:29:16;;;;;;;238.77;11.23;;;;;;;;;;4983496;28;20026;-57
2023/05/05 10:31:48;;;;;;;262.17;11.15;;;;;;;;;;4982318;28;20124;-56
2023/05/05 10:34:31;;;;;;;238.10;10.73;;;;;;;;;;4980634;28;20025;-59
2023/05/05 10:36:59;;;;;;;226.23;10.30;;;;;;;;;;4982697;28;20042;-57
2023/05/05 10:39:25;;;;;;;219.05;9.88;;;;;;;;;;4984591;28;20030;-57
2023/05/05 10:41:50;;;;;;;302.98;12.75;;;;;;;;;;4983055;28;20042;-58
2023/05/05 10:44:16;;;;;;;225.55;9.93;;;;;;;;;;4984237;28;20033;-58
2023/05/05 10:46:41;;;;;;;242.55;10.38;;;;;;;;;;4982356;28;20133;-58
2023/05/05 10:49:19;;;;;;;229.18;10.43;;;;;;;;;;4982231;28;20075;-57
2023/05/05 10:51:53;;;;;;;208.43;9.82;;;;;;;;;;4981935;28;20027;-58
2023/05/05 10:54:28;;;;;;;170.45;8.50;;;;;;;;;;4983823;28;20033;-58
2023/05/05 10:56:53;;;;;;;187.10;9.13;;;;;;;;;;4981863;28;20026;-57
2023/05/05 10:59:37;;;;;;;189.80;8.77;;;;;;;;;;4981932;28;20026;-57
2023/05/05 11:02:25;;;;;;;231.30;10.27;;;;;;;;;;4980116;28;20034;-56
2023/05/05 11:05:09;;;;;;;206.85;9.90;;;;;;;;;;4990192;28;20028;-55
2023/05/05 11:07:38;;;;;;;225.43;9.77;;;;;;;;;;4964605;28;20045;-55
2023/05/05 11:10:04;;;;;;;206.55;9.15;;;;;;;;;;4982279;28;20021;-57
2023/05/05 11:12:30;;;;;;;245.48;10.57;;;;;;;;;;4984571;28;20573;-56
2023/05/05 11:15:14;;;;;;;199.38;9.55;;;;;;;;;;4964625;28;20117;-56
2023/05/05 11:17:43;;;;;;;237.02;10.55;;;;;;;;;;4978929;28;20039;-56
2023/05/05 11:20:08;;;;;;;156.00;7.78;;;;;;;;;;4980211;28;20022;-56
2023/05/05 11:22:53;;;;;;;187.23;8.57;;;;;;;;;;4983075;28;20029;-57
2023/05/05 11:25:34;;;;;;;206.63;9.00;;;;;;;;;;4983310;28;20935;-56
2023/05/05 11:28:03;;;;;;;154.18;7.47;;;;;;;;;;4985156;28;20054;-56
2023/05/05 11:30:29;;;;;;;165.88;7.65;;;;;;;;;;4982445;28;20748;-57
2023/05/05 11:33:34;;;;;;;176.48;8.13;;;;;;;;;;4981599;28;20015;-57
2023/05/05 11:36:03;;;;;;;222.70;9.40;;;;;;;;;;5043870;28;20029;-56
2023/05/05 11:38:29;;;;;;;202.88;8.70;;;;;;;;;;5051812;28;20036;-57
2023/05/05 11:40:57;;;;;;;215.63;9.10;;;;;;;;;;5012337;28;20041;-56
2023/05/05 11:43:22;;;;;;;230.13;9.23;;;;;;;;;;4981849;28;20036;-55
2023/05/05 11:45:48;;;;;;;228.50;9.63;;;;;;;;;;4981801;28;20038;-57
2023/05/05 11:48:22;;;;;;;278.50;11.43;;;;;;;;;;4980603;28;20858;-56
2023/05/05 11:50:48;;;;;;;155.40;7.63;;;;;;;;;;4981456;28;20309;-56
2023/05/05 11:53:13;;;;;;;220.07;9.57;;;;;;;;;;4984108;28;20068;-56
2023/05/05 11:55:38;;;;;;;238.70;10.17;;;;;;;;;;4981113;28;20038;-56
2023/05/05 11:58:16;;;;;;;223.90;9.90;;;;;;;;;;4981248;28;20317;-56
2023/05/05 12:00:41;;;;;;;194.00;9.13;;;;;;;;;;4981448;28;20046;-56
2023/05/05 12:03:07;;;;;;;206.37;9.37;;;;;;;;;;4980534;28;20023;-56
2023/05/05 12:05:33;;;;;;;188.27;8.38;;;;;;;;;;4981789;28;20119;-58
2023/05/05 12:07:58;;;;;;;168.63;8.07;;;;;;;;;;4983592;28;20026;-58
2023/05/05 12:10:23;;;;;;;130.90;7.47;;;;;;;;;;4982108;28;20476;-58
2023/05/05 12:12:49;;;;;;;177.45;8.55;;;;;;;;;;4981300;28;20093;-57
2023/05/05 12:15:14;;;;;;;159.05;8.25;;;;;;;;;;4981783;28;20022;-56
2023/05/05 12:17:41;;;;;;;197.70;8.97;;;;;;;;;;4979980;28;20039;-56
2023/05/05 12:20:07;;;;;;;173.07;8.82;;;;;;;;;;4979944;28;20354;-56
2023/05/05 12:22:33;;;;;;;157.27;7.65;;;;;;;;;;4982096;28;20023;-57
2023/05/05 12:24:59;;;;;;;371.85;14.52;;;;;;;;;;4977570;28;20110;-56
2023/05/05 12:27:25;;;;;;;214.43;9.93;;;;;;;;;;4979807;28;20030;-57
2023/05/05 12:29:51;;;;;;;168.05;9.15;;;;;;;;;;4983312;28;20075;-58
2023/05/05 12:32:24;;;;;;;199.45;9.55;;;;;;;;;;4983810;28;20112;-57
2023/05/05 12:34:52;;;;;;;159.55;8.52;;;;;;;;;;4984013;28;20044;-56
2023/05/05 12:37:18;;;;;;;181.93;9.25;;;;;;;;;;4985930;28;20043;-57
2023/05/05 12:39:43;;;;;;;151.05;8.38;;;;;;;;;;4985027;28;20350;-57
2023/05/05 12:42:09;;;;;;;239.85;10.63;;;;;;;;;;4986143;28;20062;-56
2023/05/05 12:44:35;;;;;;;175.70;9.47;;;;;;;;;;4976024;28;20026;-56
2023/05/05 12:47:00;;;;;;;171.73;9.75;;;;;;;;;;4984055;28;20267;-56
2023/05/05 12:49:26;;;;;;;203.35;10.23;;;;;;;;;;4979536;28;20030;-57
2023/05/05 12:51:55;;;;;;;167.07;9.38;;;;;;;;;;4983295;28;20066;-56
2023/05/05 12:54:22;;;;;;;170.00;10.18;;;;;;;;;;4987122;28;20022;-56
2023/05/05 12:56:47;;;;;;;218.05;11.07;;;;;;;;;;4984215;28;20038;-57
2023/05/05 12:59:22;;;;;;;192.38;10.38;;;;;;;;;;4985375;28;20037;-56
2023/05/05 13:01:51;;;;;;;246.77;11.80;;;;;;;;;;4982784;28;20134;-56
2023/05/05 13:04:17;;;;;;;260.98;12.43;;;;;;;;;;4981495;28;20552;-57
2023/05/05 13:06:43;;;;;;;253.98;11.95;;;;;;;;;;4985602;28;20040;-58
2023/05/05 13:09:20;;;;;;;258.33;11.98;;;;;;;;;;4984814;28;20027;-58
2023/05/05 13:11:45;;;;;;;157.02;9.88;;;;;;;;;;4984081;28;20038;-56
2023/05/05 13:14:11;;;;;;;138.70;7.23;;;;;;;;;;4986591;28;20049;-58
2023/05/05 13:16:36;;;;;;;190.87;10.60;;;;;;;;;;4982998;28;20069;-59
2023/05/05 13:19:01;;;;;;;202.55;10.20;;;;;;;;;;4984350;28;20049;-57
2023/05/05 13:21:27;;;;;;;226.53;11.07;;;;;;;;;;4975357;28;20126;-57
2023/05/05 13:23:52;;;;;;;298.88;13.55;;;;;;;;;;4983074;28;20258;-57
2023/05/05 13:26:17;;;;;;;263.07;12.63;;;;;;;;;;4982729;28;20169;-58
2023/05/05 13:28:42;;;;;;;235.50;11.80;;;;;;;;;;4983713;28;20114;-58
2023/05/05 13:31:08;;;;;;;319.63;14.18;;;;;;;;;;4983690;28;20038;-59
2023/05/05 13:33:33;;;;;;;301.30;13.17;;;;;;;;;;4983616;28;20033;-59
2023/05/05 13:35:59;;;;;;;288.48;12.55;;;;;;;;;;4982515;28;20034;-58
2023/05/05 13:38:24;;;;;;;233.60;11.63;;;;;;;;;;4985064;28;20101;-56
2023/05/05 13:40:50;;;;;;;253.73;11.37;;;;;;;;;;4983103;28;20161;-57
2023/05/05 13:43:15;;;;;;;248.93;11.40;;;;;;;;;;4986863;28;20685;-57
2023/05/05 13:45:40;;;;;;;271.83;13.17;;;;;;;;;;4984739;28;20388;-58
2023/05/05 13:48:05;;;;;;;372.73;15.43;;;;;;;;;;4981570;28;20185;-59
2023/05/05 13:50:31;;;;;;;274.90;11.65;;;;;;;;;;4971171;28;20756;-57
2023/05/05 13:52:56;;;;;;;335.63;14.10;;;;;;;;;;4982138;28;20038;-57
2023/05/05 13:55:21;;;;;;;261.93;12.97;;;;;;;;;;4982989;28;20062;-56
2023/05/05 13:57:47;;;;;;;271.98;12.25;;;;;;;;;;4985213;28;20124;-57
2023/05/05 14:00:12;;;;;;;262.10;12.53;;;;;;;;;;4981739;28;20292;-57
2023/05/05 14:02:37;;;;;;;236.65;11.75;;;;;;;;;;4982563;28;20287;-57
2023/05/05 14:05:03;;;;;;;271.20;12.73;;;;;;;;;;4982928;28;20551;-57
2023/05/05 14:07:28;;;;;;;251.48;12.35;;;;;;;;;;4985385;28;20949;-55